sensor_id;sensor_type;location;lat;lon;timestamp;P1;durP1;ratioP1;P2;durP2;ratioP2
7699;SDS011;3892;47.794;19.126;2023-04-20T04:37:49;1999.90;;;999.90;;
7699;SDS011;3892;47.794;19.126;2023-04-20T04:40:17;1999.90;;;999.90;;
7699;SDS011;3892;47.794;19.126;2023-04-20T04:42:47;1999.90;;;999.90;;
7699;SDS011;3892;47.794;19.126;2023-04-20T04:45:16;1999.90;;;999.90;;
7699;SDS011;3892;47.794;19.126;2023-04-20T04:47:44;1999.90;;;999.90;;
7699;SDS011;3892;47.794;19.126;2023-04-20T04:50:11;1999.90;;;999.90;;
7699;SDS011;3892;47.794;19.126;2023-04-20T04:52:38;1999.90;;;999.90;;
7699;SDS011;3892;47.794;19.126;2023-04-20T04:55:07;1999.90;;;999.90;;
7699;SDS011;3892;47.794;19.126;2023-04-20T04:57:34;1999.90;;;999.90;;
7699;SDS011;3892;47.794;19.126;2023-04-20T05:00:03;1999.90;;;999.90;;
7699;SDS011;3892;47.794;19.126;2023-04-20T05:02:33;1999.90;;;999.90;;
7699;SDS011;3892;47.794;19.126;2023-04-20T05:05:00;1999.90;;;999.90;;
7699;SDS011;3892;47.794;19.126;2023-04-20T05:07:27;1999.90;;;999.90;;
7699;SDS011;3892;47.794;19.126;2023-04-20T05:09:54;1999.90;;;999.90;;
7699;SDS011;3892;47.794;19.126;2023-04-20T05:12:23;1999.90;;;999.90;;
7699;SDS011;3892;47.794;19.126;2023-04-20T05:14:50;1999.90;;;999.90;;
7699;SDS011;3892;47.794;19.126;2023-04-20T05:17:17;1999.90;;;999.90;;
7699;SDS011;3892;47.794;19.126;2023-04-20T05:19:44;1999.90;;;999.90;;
7699;SDS011;3892;47.794;19.126;2023-04-20T05:22:11;1999.90;;;999.90;;
7699;SDS011;3892;47.794;19.126;2023-04-20T05:24:38;1999.90;;;999.90;;
7699;SDS011;3892;47.794;19.126;2023-04-20T05:27:06;1999.90;;;999.90;;
7699;SDS011;3892;47.794;19.126;2023-04-20T05:29:35;1999.90;;;999.90;;
7699;SDS011;3892;47.794;19.126;2023-04-20T05:32:02;1999.90;;;999.90;;
7699;SDS011;3892;47.794;19.126;2023-04-20T05:34:29;1999.90;;;999.90;;
7699;SDS011;3892;47.794;19.126;2023-04-20T05:36:57;1999.90;;;999.90;;
7699;SDS011;3892;47.794;19.126;2023-04-20T05:39:24;1999.90;;;999.90;;
7699;SDS011;3892;47.794;19.126;2023-04-20T05:41:51;1999.90;;;999.90;;
7699;SDS011;3892;47.794;19.126;2023-04-20T05:44:18;1999.90;;;999.90;;
7699;SDS011;3892;47.794;19.126;2023-04-20T05:46:46;1999.90;;;999.90;;
7699;SDS011;3892;47.794;19.126;2023-04-20T05:49:14;1999.90;;;999.90;;
7699;SDS011;3892;47.794;19.126;2023-04-20T05:51:41;1999.90;;;999.90;;
7699;SDS011;3892;47.794;19.126;2023-04-20T05:54:08;1999.90;;;999.90;;
7699;SDS011;3892;47.794;19.126;2023-04-20T05:56:35;1999.90;;;999.90;;
7699;SDS011;3892;47.794;19.126;2023-04-20T05:59:02;1999.90;;;999.90;;
7699;SDS011;3892;47.794;19.126;2023-04-20T06:01:30;1999.90;;;999.90;;
7699;SDS011;3892;47.794;19.126;2023-04-20T06:03:58;1999.90;;;999.90;;
7699;SDS011;3892;47.794;19.126;2023-04-20T06:06:25;1999.90;;;999.90;;
7699;SDS011;3892;47.794;19.126;2023-04-20T06:08:53;1999.90;;;999.90;;
7699;SDS011;3892;47.794;19.126;2023-04-20T06:11:22;1999.90;;;999.90;;
7699;SDS011;3892;47.794;19.126;2023-04-20T06:13:49;1999.90;;;999.90;;
7699;SDS011;3892;47.794;19.126;2023-04-20T06:16:16;1999.90;;;999.90;;
7699;SDS011;3892;47.794;19.126;2023-04-20T06:18:43;1999.90;;;999.90;;
7699;SDS011;3892;47.794;19.126;2023-04-20T06:21:11;1999.90;;;999.90;;
7699;SDS011;3892;47.794;19.126;2023-04-20T06:23:38;1999.90;;;999.90;;
7699;SDS011;3892;47.794;19.126;2023-04-20T06:26:05;1999.90;;;999.90;;
7699;SDS011;3892;47.794;19.126;2023-04-20T06:28:34;1999.90;;;999.90;;
7699;SDS011;3892;47.794;19.126;2023-04-20T06:31:01;1999.90;;;999.90;;
7699;SDS011;3892;47.794;19.126;2023-04-20T06:33:28;1999.90;;;999.90;;
7699;SDS011;3892;47.794;19.126;2023-04-20T06:35:55;1999.90;;;999.90;;
7699;SDS011;3892;47.794;19.126;2023-04-20T06:38:24;1999.90;;;999.90;;
7699;SDS011;3892;47.794;19.126;2023-04-20T06:40:51;1999.90;;;999.90;;
7699;SDS011;3892;47.794;19.126;2023-04-20T06:43:18;1999.90;;;999.90;;
7699;SDS011;3892;47.794;19.126;2023-04-20T06:45:46;1999.90;;;999.90;;
7699;SDS011;3892;47.794;19.126;2023-04-20T06:48:13;1999.90;;;999.90;;
7699;SDS011;3892;47.794;19.126;2023-04-20T06:50:40;1999.90;;;999.90;;
7699;SDS011;3892;47.794;19.126;2023-04-20T06:53:07;1999.90;;;999.90;;
7699;SDS011;3892;47.794;19.126;2023-04-20T06:55:36;1999.90;;;999.90;;
7699;SDS011;3892;47.794;19.126;2023-04-20T06:58:03;1999.90;;;999.90;;
7699;SDS011;3892;47.794;19.126;2023-04-20T07:00:30;1999.90;;;999.90;;
7699;SDS011;3892;47.794;19.126;2023-04-20T07:02:59;1999.90;;;999.90;;
7699;SDS011;3892;47.794;19.126;2023-04-20T07:05:26;1999.90;;;999.90;;
7699;SDS011;3892;47.794;19.126;2023-04-20T07:07:54;1999.90;;;999.90;;
7699;SDS011;3892;47.794;19.126;2023-04-20T07:10:21;1999.90;;;999.90;;
7699;SDS011;3892;47.794;19.126;2023-04-20T07:12:49;1999.90;;;999.90;;
7699;SDS011;3892;47.794;19.126;2023-04-20T07:15:16;1999.90;;;999.90;;
7699;SDS011;3892;47.794;19.126;2023-04-20T07:17:43;1999.90;;;999.90;;
7699;SDS011;3892;47.794;19.126;2023-04-20T07:20:10;1999.90;;;999.90;;
7699;SDS011;3892;47.794;19.126;2023-04-20T07:22:37;1999.90;;;999.90;;
7699;SDS011;3892;47.794;19.126;2023-04-20T07:25:05;1999.90;;;999.90;;
7699;SDS011;3892;47.794;19.126;2023-04-20T07:27:34;1999.90;;;999.90;;
7699;SDS011;3892;47.794;19.126;2023-04-20T07:30:04;1999.90;;;999.90;;
7699;SDS011;3892;47.794;19.126;2023-04-20T07:32:33;1999.90;;;999.90;;
7699;SDS011;3892;47.794;19.126;2023-04-20T07:35:00;1999.90;;;999.90;;
7699;SDS011;3892;47.794;19.126;2023-04-20T07:37:28;1999.90;;;999.90;;
7699;SDS011;3892;47.794;19.126;2023-04-20T07:39:55;1999.90;;;999.90;;
7699;SDS011;3892;47.794;19.126;2023-04-20T07:42:22;1999.90;;;999.90;;
7699;SDS011;3892;47.794;19.126;2023-04-20T07:44:49;1999.90;;;999.90;;
7699;SDS011;3892;47.794;19.126;2023-04-20T07:47:18;1999.90;;;999.90;;
7699;SDS011;3892;47.794;19.126;2023-04-20T07:49:45;1999.90;;;999.90;;
7699;SDS011;3892;47.794;19.126;2023-04-20T07:52:12;1999.90;;;999.90;;
7699;SDS011;3892;47.794;19.126;2023-04-20T07:54:39;1999.90;;;999.90;;
7699;SDS011;3892;47.794;19.126;2023-04-20T07:57:06;1999.90;;;999.90;;
7699;SDS011;3892;47.794;19.126;2023-04-20T07:59:33;1999.90;;;999.90;;
7699;SDS011;3892;47.794;19.126;2023-04-20T08:02:01;1999.90;;;999.90;;
7699;SDS011;3892;47.794;19.126;2023-04-20T08:04:29;1999.90;;;999.90;;
7699;SDS011;3892;47.794;19.126;2023-04-20T08:06:56;1999.90;;;999.90;;
7699;SDS011;3892;47.794;19.126;2023-04-20T08:09:23;1999.90;;;999.90;;
7699;SDS011;3892;47.794;19.126;2023-04-20T08:11:51;1999.90;;;999.90;;
7699;SDS011;3892;47.794;19.126;2023-04-20T08:14:18;1999.90;;;999.90;;
7699;SDS011;3892;47.794;19.126;2023-04-20T08:16:45;1999.90;;;999.90;;
7699;SDS011;3892;47.794;19.126;2023-04-20T08:19:12;1999.90;;;999.90;;
7699;SDS011;3892;47.794;19.126;2023-04-20T08:21:40;1999.90;;;999.90;;
7699;SDS011;3892;47.794;19.126;2023-04-20T08:24:08;1999.90;;;999.90;;
7699;SDS011;3892;47.794;19.126;2023-04-20T08:26:35;1999.90;;;999.90;;
7699;SDS011;3892;47.794;19.126;2023-04-20T08:29:04;1999.90;;;999.90;;
7699;SDS011;3892;47.794;19.126;2023-04-20T08:31:31;1999.90;;;999.90;;
7699;SDS011;3892;47.794;19.126;2023-04-20T08:33:58;1999.90;;;999.90;;
7699;SDS011;3892;47.794;19.126;2023-04-20T08:36:26;1999.90;;;999.90;;
7699;SDS011;3892;47.794;19.126;2023-04-20T08:38:55;1999.90;;;999.90;;
7699;SDS011;3892;47.794;19.126;2023-04-20T08:41:23;1999.90;;;999.90;;
7699;SDS011;3892;47.794;19.126;2023-04-20T08:43:50;1999.90;;;999.90;;
7699;SDS011;3892;47.794;19.126;2023-04-20T08:46:17;1999.90;;;999.90;;
7699;SDS011;3892;47.794;19.126;2023-04-20T08:48:45;1999.90;;;999.90;;
7699;SDS011;3892;47.794;19.126;2023-04-20T08:51:13;1999.90;;;999.90;;
7699;SDS011;3892;47.794;19.126;2023-04-20T08:53:42;1999.90;;;999.90;;
7699;SDS011;3892;47.794;19.126;2023-04-20T08:56:10;1999.90;;;999.90;;
7699;SDS011;3892;47.794;19.126;2023-04-20T08:58:37;1999.90;;;999.90;;
7699;SDS011;3892;47.794;19.126;2023-04-20T09:01:07;1999.90;;;999.90;;
7699;SDS011;3892;47.794;19.126;2023-04-20T09:03:35;1999.90;;;999.90;;
7699;SDS011;3892;47.794;19.126;2023-04-20T09:06:03;1999.90;;;999.90;;
7699;SDS011;3892;47.794;19.126;2023-04-20T09:08:34;1999.90;;;999.90;;
7699;SDS011;3892;47.794;19.126;2023-04-20T09:11:02;1999.90;;;999.90;;
7699;SDS011;3892;47.794;19.126;2023-04-20T09:13:31;1999.90;;;999.90;;
7699;SDS011;3892;47.794;19.126;2023-04-20T09:16:08;1999.90;;;999.90;;
7699;SDS011;3892;47.794;19.126;2023-04-20T09:18:36;1999.90;;;999.90;;
7699;SDS011;3892;47.794;19.126;2023-04-20T09:21:08;1999.90;;;999.90;;
7699;SDS011;3892;47.794;19.126;2023-04-20T09:23:35;1999.90;;;999.90;;
7699;SDS011;3892;47.794;19.126;2023-04-20T09:26:02;1999.90;;;999.90;;
7699;SDS011;3892;47.794;19.126;2023-04-20T09:28:40;1999.90;;;999.90;;
7699;SDS011;3892;47.794;19.126;2023-04-20T09:31:15;1999.90;;;999.90;;
7699;SDS011;3892;47.794;19.126;2023-04-20T09:33:43;1999.90;;;999.90;;
7699;SDS011;3892;47.794;19.126;2023-04-20T09:36:10;1999.90;;;999.90;;
7699;SDS011;3892;47.794;19.126;2023-04-20T09:38:37;1999.90;;;999.90;;
7699;SDS011;3892;47.794;19.126;2023-04-20T09:41:04;1999.90;;;999.90;;
7699;SDS011;3892;47.794;19.126;2023-04-20T09:43:32;1999.90;;;999.90;;
7699;SDS011;3892;47.794;19.126;2023-04-20T09:46:03;1999.90;;;999.90;;
7699;SDS011;3892;47.794;19.126;2023-04-20T09:48:32;1999.90;;;999.90;;
7699;SDS011;3892;47.794;19.126;2023-04-20T09:51:00;1999.90;;;999.90;;
7699;SDS011;3892;47.794;19.126;2023-04-20T09:53:28;1999.90;;;999.90;;
7699;SDS011;3892;47.794;19.126;2023-04-20T09:55:56;1999.90;;;999.90;;
7699;SDS011;3892;47.794;19.126;2023-04-20T09:58:25;1999.90;;;999.90;;
7699;SDS011;3892;47.794;19.126;2023-04-20T10:00:53;1999.90;;;999.90;;
7699;SDS011;3892;47.794;19.126;2023-04-20T10:03:22;1999.90;;;999.90;;
7699;SDS011;3892;47.794;19.126;2023-04-20T10:05:50;1999.90;;;999.90;;
7699;SDS011;3892;47.794;19.126;2023-04-20T10:08:19;1999.90;;;999.90;;
7699;SDS011;3892;47.794;19.126;2023-04-20T10:10:48;1999.90;;;999.90;;
7699;SDS011;3892;47.794;19.126;2023-04-20T10:13:16;1999.90;;;999.90;;
7699;SDS011;3892;47.794;19.126;2023-04-20T10:15:45;1999.90;;;999.90;;
7699;SDS011;3892;47.794;19.126;2023-04-20T10:18:19;1999.90;;;999.90;;
7699;SDS011;3892;47.794;19.126;2023-04-20T10:20:49;1999.90;;;999.90;;
7699;SDS011;3892;47.794;19.126;2023-04-20T10:23:16;1999.90;;;999.90;;
7699;SDS011;3892;47.794;19.126;2023-04-20T10:25:53;1999.90;;;999.90;;
7699;SDS011;3892;47.794;19.126;2023-04-20T10:28:20;1999.90;;;999.90;;
7699;SDS011;3892;47.794;19.126;2023-04-20T10:30:51;1999.90;;;999.90;;
7699;SDS011;3892;47.794;19.126;2023-04-20T10:33:18;1999.90;;;999.90;;
7699;SDS011;3892;47.794;19.126;2023-04-20T10:35:48;1999.90;;;999.90;;
7699;SDS011;3892;47.794;19.126;2023-04-20T11:20:29;1999.90;;;999.90;;
7699;SDS011;3892;47.794;19.126;2023-04-20T11:30:48;1999.90;;;999.90;;
7699;SDS011;3892;47.794;19.126;2023-04-20T11:35:05;1999.90;;;999.90;;
7699;SDS011;3892;47.794;19.126;2023-04-20T11:44:36;1999.90;;;999.90;;
7699;SDS011;3892;47.794;19.126;2023-04-20T14:20:55;0.30;;;0.30;;
7699;SDS011;3892;47.794;19.126;2023-04-20T14:23:23;0.30;;;0.30;;
7699;SDS011;3892;47.794;19.126;2023-04-20T14:25:51;0.30;;;0.30;;
7699;SDS011;3892;47.794;19.126;2023-04-20T14:28:19;0.30;;;0.30;;
7699;SDS011;3892;47.794;19.126;2023-04-20T14:30:47;0.30;;;0.30;;
7699;SDS011;3892;47.794;19.126;2023-04-20T14:33:16;0.30;;;0.30;;
7699;SDS011;3892;47.794;19.126;2023-04-20T14:35:44;0.30;;;0.30;;
7699;SDS011;3892;47.794;19.126;2023-04-20T14:38:14;0.30;;;0.30;;
7699;SDS011;3892;47.794;19.126;2023-04-20T14:40:42;0.30;;;0.30;;
7699;SDS011;3892;47.794;19.126;2023-04-20T14:43:10;0.30;;;0.30;;
7699;SDS011;3892;47.794;19.126;2023-04-20T14:45:38;0.40;;;0.40;;
7699;SDS011;3892;47.794;19.126;2023-04-20T14:48:06;0.30;;;0.30;;
7699;SDS011;3892;47.794;19.126;2023-04-20T14:50:34;0.30;;;0.30;;
7699;SDS011;3892;47.794;19.126;2023-04-20T14:53:03;0.30;;;0.30;;
7699;SDS011;3892;47.794;19.126;2023-04-20T14:55:32;0.33;;;0.33;;
7699;SDS011;3892;47.794;19.126;2023-04-20T14:58:00;0.30;;;0.30;;
7699;SDS011;3892;47.794;19.126;2023-04-20T15:00:28;0.30;;;0.30;;
7699;SDS011;3892;47.794;19.126;2023-04-20T15:02:56;0.30;;;0.30;;
7699;SDS011;3892;47.794;19.126;2023-04-20T15:05:25;0.30;;;0.30;;
7699;SDS011;3892;47.794;19.126;2023-04-20T15:07:55;0.30;;;0.30;;
7699;SDS011;3892;47.794;19.126;2023-04-20T15:10:24;0.30;;;0.30;;
7699;SDS011;3892;47.794;19.126;2023-04-20T15:12:53;0.30;;;0.30;;
7699;SDS011;3892;47.794;19.126;2023-04-20T15:15:21;0.30;;;0.30;;
7699;SDS011;3892;47.794;19.126;2023-04-20T15:17:50;0.30;;;0.30;;
7699;SDS011;3892;47.794;19.126;2023-04-20T15:20:19;0.30;;;0.30;;
7699;SDS011;3892;47.794;19.126;2023-04-20T15:22:47;0.30;;;0.30;;
7699;SDS011;3892;47.794;19.126;2023-04-20T15:25:15;0.40;;;0.40;;
7699;SDS011;3892;47.794;19.126;2023-04-20T15:27:43;0.47;;;0.47;;
7699;SDS011;3892;47.794;19.126;2023-04-20T15:30:13;0.40;;;0.40;;
7699;SDS011;3892;47.794;19.126;2023-04-20T15:32:41;0.50;;;0.50;;
7699;SDS011;3892;47.794;19.126;2023-04-20T15:35:09;0.47;;;0.47;;
7699;SDS011;3892;47.794;19.126;2023-04-20T15:37:37;0.50;;;0.50;;
7699;SDS011;3892;47.794;19.126;2023-04-20T15:40:06;1.30;;;0.70;;
7699;SDS011;3892;47.794;19.126;2023-04-20T15:42:34;0.80;;;0.80;;
7699;SDS011;3892;47.794;19.126;2023-04-20T15:45:03;0.80;;;0.80;;
7699;SDS011;3892;47.794;19.126;2023-04-20T15:47:33;0.67;;;0.67;;
7699;SDS011;3892;47.794;19.126;2023-04-20T15:50:01;1.43;;;1.00;;
7699;SDS011;3892;47.794;19.126;2023-04-20T15:52:30;3.60;;;1.30;;
7699;SDS011;3892;47.794;19.126;2023-04-20T15:54:58;1.53;;;1.40;;
7699;SDS011;3892;47.794;19.126;2023-04-20T15:57:27;5.60;;;1.97;;
7699;SDS011;3892;47.794;19.126;2023-04-20T15:59:58;2.40;;;1.70;;
7699;SDS011;3892;47.794;19.126;2023-04-20T16:02:26;1.30;;;1.20;;
7699;SDS011;3892;47.794;19.126;2023-04-20T16:04:56;1.40;;;1.30;;
7699;SDS011;3892;47.794;19.126;2023-04-20T16:07:24;1.60;;;1.40;;
7699;SDS011;3892;47.794;19.126;2023-04-20T16:09:52;1.43;;;1.33;;
7699;SDS011;3892;47.794;19.126;2023-04-20T16:12:20;2.80;;;1.80;;
7699;SDS011;3892;47.794;19.126;2023-04-20T16:14:48;2.60;;;2.40;;
7699;SDS011;3892;47.794;19.126;2023-04-20T16:17:17;6.43;;;4.63;;
7699;SDS011;3892;47.794;19.126;2023-04-20T16:19:45;3.70;;;3.40;;
7699;SDS011;3892;47.794;19.126;2023-04-20T16:22:15;2.93;;;2.63;;
7699;SDS011;3892;47.794;19.126;2023-04-20T16:24:43;2.20;;;2.00;;
7699;SDS011;3892;47.794;19.126;2023-04-20T16:27:11;2.67;;;2.47;;
7699;SDS011;3892;47.794;19.126;2023-04-20T16:29:39;1.80;;;1.70;;
7699;SDS011;3892;47.794;19.126;2023-04-20T16:32:07;1.87;;;1.77;;
7699;SDS011;3892;47.794;19.126;2023-04-20T16:34:37;2.83;;;2.57;;
7699;SDS011;3892;47.794;19.126;2023-04-20T16:37:05;3.40;;;3.03;;
7699;SDS011;3892;47.794;19.126;2023-04-20T16:39:34;3.50;;;3.20;;
7699;SDS011;3892;47.794;19.126;2023-04-20T16:42:02;8.63;;;7.90;;
7699;SDS011;3892;47.794;19.126;2023-04-20T16:44:31;2.93;;;2.73;;
7699;SDS011;3892;47.794;19.126;2023-04-20T16:46:59;4.73;;;4.20;;
7699;SDS011;3892;47.794;19.126;2023-04-20T16:49:28;3.43;;;3.13;;
7699;SDS011;3892;47.794;19.126;2023-04-20T16:51:56;3.00;;;2.80;;
7699;SDS011;3892;47.794;19.126;2023-04-20T16:54:24;3.00;;;2.80;;
7699;SDS011;3892;47.794;19.126;2023-04-20T16:56:54;3.83;;;3.60;;
7699;SDS011;3892;47.794;19.126;2023-04-20T16:59:22;3.33;;;3.13;;
7699;SDS011;3892;47.794;19.126;2023-04-20T17:01:50;2.50;;;2.30;;
7699;SDS011;3892;47.794;19.126;2023-04-20T17:04:19;3.77;;;3.57;;
7699;SDS011;3892;47.794;19.126;2023-04-20T17:06:47;5.73;;;5.33;;
7699;SDS011;3892;47.794;19.126;2023-04-20T17:09:15;2.97;;;2.77;;
7699;SDS011;3892;47.794;19.126;2023-04-20T17:11:43;3.40;;;2.37;;
7699;SDS011;3892;47.794;19.126;2023-04-20T17:14:13;3.13;;;2.83;;
7699;SDS011;3892;47.794;19.126;2023-04-20T17:16:42;3.33;;;2.70;;
7699;SDS011;3892;47.794;19.126;2023-04-20T17:19:10;4.00;;;2.60;;
7699;SDS011;3892;47.794;19.126;2023-04-20T17:21:38;2.97;;;2.67;;
7699;SDS011;3892;47.794;19.126;2023-04-20T17:24:07;2.60;;;2.40;;
7699;SDS011;3892;47.794;19.126;2023-04-20T17:26:35;2.70;;;2.50;;
7699;SDS011;3892;47.794;19.126;2023-04-20T17:29:03;4.30;;;4.00;;
7699;SDS011;3892;47.794;19.126;2023-04-20T17:31:32;10.47;;;9.17;;
7699;SDS011;3892;47.794;19.126;2023-04-20T17:34:01;8.70;;;7.83;;
7699;SDS011;3892;47.794;19.126;2023-04-20T17:36:29;5.00;;;4.50;;
7699;SDS011;3892;47.794;19.126;2023-04-20T17:38:59;5.13;;;4.63;;
7699;SDS011;3892;47.794;19.126;2023-04-20T17:41:27;4.83;;;3.67;;
7699;SDS011;3892;47.794;19.126;2023-04-20T17:43:55;3.80;;;3.50;;
7699;SDS011;3892;47.794;19.126;2023-04-20T17:46:23;3.50;;;3.20;;
7699;SDS011;3892;47.794;19.126;2023-04-20T17:48:53;3.60;;;3.30;;
7699;SDS011;3892;47.794;19.126;2023-04-20T17:51:22;3.00;;;2.80;;
7699;SDS011;3892;47.794;19.126;2023-04-20T17:53:50;3.40;;;3.20;;
7699;SDS011;3892;47.794;19.126;2023-04-20T17:56:18;3.07;;;2.80;;
7699;SDS011;3892;47.794;19.126;2023-04-20T17:58:46;3.47;;;3.17;;
7699;SDS011;3892;47.794;19.126;2023-04-20T18:01:15;3.90;;;3.00;;
7699;SDS011;3892;47.794;19.126;2023-04-20T18:03:43;5.00;;;3.60;;
7699;SDS011;3892;47.794;19.126;2023-04-20T18:06:15;3.67;;;3.37;;
7699;SDS011;3892;47.794;19.126;2023-04-20T18:08:43;3.70;;;3.40;;
7699;SDS011;3892;47.794;19.126;2023-04-20T18:11:12;4.23;;;3.80;;
7699;SDS011;3892;47.794;19.126;2023-04-20T18:13:40;5.47;;;3.97;;
7699;SDS011;3892;47.794;19.126;2023-04-20T18:16:10;4.60;;;3.60;;
7699;SDS011;3892;47.794;19.126;2023-04-20T18:18:39;6.10;;;4.20;;
7699;SDS011;3892;47.794;19.126;2023-04-20T18:21:07;4.00;;;3.70;;
7699;SDS011;3892;47.794;19.126;2023-04-20T18:23:39;4.43;;;4.03;;
7699;SDS011;3892;47.794;19.126;2023-04-20T18:26:07;4.87;;;3.53;;
7699;SDS011;3892;47.794;19.126;2023-04-20T18:28:42;3.20;;;3.00;;
7699;SDS011;3892;47.794;19.126;2023-04-20T18:31:11;4.40;;;3.77;;
7699;SDS011;3892;47.794;19.126;2023-04-20T18:33:40;4.30;;;3.87;;
7699;SDS011;3892;47.794;19.126;2023-04-20T18:36:10;4.77;;;4.27;;
7699;SDS011;3892;47.794;19.126;2023-04-20T18:38:40;9.80;;;6.20;;
7699;SDS011;3892;47.794;19.126;2023-04-20T18:41:10;8.83;;;6.73;;
7699;SDS011;3892;47.794;19.126;2023-04-20T18:43:39;10.13;;;6.60;;
7699;SDS011;3892;47.794;19.126;2023-04-20T18:46:10;10.47;;;6.27;;
7699;SDS011;3892;47.794;19.126;2023-04-20T18:48:38;7.50;;;5.77;;
7699;SDS011;3892;47.794;19.126;2023-04-20T18:51:06;5.97;;;5.37;;
7699;SDS011;3892;47.794;19.126;2023-04-20T18:53:36;6.90;;;5.57;;
7699;SDS011;3892;47.794;19.126;2023-04-20T18:56:08;7.13;;;5.20;;
7699;SDS011;3892;47.794;19.126;2023-04-20T18:58:36;5.83;;;5.30;;
7699;SDS011;3892;47.794;19.126;2023-04-20T19:01:05;9.77;;;5.83;;
7699;SDS011;3892;47.794;19.126;2023-04-20T19:03:35;10.13;;;5.10;;
7699;SDS011;3892;47.794;19.126;2023-04-20T19:06:04;6.10;;;4.83;;
7699;SDS011;3892;47.794;19.126;2023-04-20T19:08:34;5.53;;;4.80;;
7699;SDS011;3892;47.794;19.126;2023-04-20T19:11:04;7.97;;;5.57;;
7699;SDS011;3892;47.794;19.126;2023-04-20T19:13:37;5.43;;;4.93;;
7699;SDS011;3892;47.794;19.126;2023-04-20T19:16:10;6.10;;;4.67;;
7699;SDS011;3892;47.794;19.126;2023-04-20T19:18:42;5.43;;;4.93;;
7699;SDS011;3892;47.794;19.126;2023-04-20T19:21:12;5.17;;;4.67;;
7699;SDS011;3892;47.794;19.126;2023-04-20T19:23:41;7.60;;;5.63;;
7699;SDS011;3892;47.794;19.126;2023-04-20T19:26:09;7.30;;;6.37;;
7699;SDS011;3892;47.794;19.126;2023-04-20T19:28:40;6.23;;;5.17;;
7699;SDS011;3892;47.794;19.126;2023-04-20T19:31:15;6.20;;;4.80;;
7699;SDS011;3892;47.794;19.126;2023-04-20T19:33:45;4.37;;;3.43;;
7699;SDS011;3892;47.794;19.126;2023-04-20T19:36:14;3.07;;;2.87;;
7699;SDS011;3892;47.794;19.126;2023-04-20T19:38:48;3.23;;;2.37;;
7699;SDS011;3892;47.794;19.126;2023-04-20T19:41:24;2.20;;;2.07;;
7699;SDS011;3892;47.794;19.126;2023-04-20T19:43:55;3.23;;;2.93;;
7699;SDS011;3892;47.794;19.126;2023-04-20T19:46:24;3.47;;;3.07;;
7699;SDS011;3892;47.794;19.126;2023-04-20T19:48:52;4.40;;;3.50;;
7699;SDS011;3892;47.794;19.126;2023-04-20T19:51:25;3.57;;;3.03;;
7699;SDS011;3892;47.794;19.126;2023-04-20T19:53:55;5.53;;;3.80;;
7699;SDS011;3892;47.794;19.126;2023-04-20T19:56:26;4.30;;;3.80;;
7699;SDS011;3892;47.794;19.126;2023-04-20T19:58:56;4.47;;;4.03;;
7699;SDS011;3892;47.794;19.126;2023-04-20T20:01:25;5.47;;;4.27;;
7699;SDS011;3892;47.794;19.126;2023-04-20T20:03:54;7.10;;;4.37;;
7699;SDS011;3892;47.794;19.126;2023-04-20T20:06:23;5.80;;;4.10;;
7699;SDS011;3892;47.794;19.126;2023-04-20T20:08:53;8.10;;;4.60;;
7699;SDS011;3892;47.794;19.126;2023-04-20T20:11:21;5.50;;;4.67;;
7699;SDS011;3892;47.794;19.126;2023-04-20T20:13:51;9.27;;;5.20;;
7699;SDS011;3892;47.794;19.126;2023-04-20T20:16:21;6.30;;;4.77;;
7699;SDS011;3892;47.794;19.126;2023-04-20T20:18:49;7.10;;;5.03;;
7699;SDS011;3892;47.794;19.126;2023-04-20T20:21:18;9.03;;;8.13;;
7699;SDS011;3892;47.794;19.126;2023-04-20T20:23:46;11.13;;;7.10;;
7699;SDS011;3892;47.794;19.126;2023-04-20T20:26:14;8.93;;;6.97;;
7699;SDS011;3892;47.794;19.126;2023-04-20T20:28:42;6.53;;;5.80;;
7699;SDS011;3892;47.794;19.126;2023-04-20T20:31:11;7.73;;;5.27;;
7699;SDS011;3892;47.794;19.126;2023-04-20T20:33:41;6.43;;;4.80;;
7699;SDS011;3892;47.794;19.126;2023-04-20T20:36:09;5.83;;;4.73;;
7699;SDS011;3892;47.794;19.126;2023-04-20T20:38:39;5.87;;;5.03;;
7699;SDS011;3892;47.794;19.126;2023-04-20T20:41:08;5.60;;;5.00;;
7699;SDS011;3892;47.794;19.126;2023-04-20T20:43:39;5.40;;;4.70;;
7699;SDS011;3892;47.794;19.126;2023-04-20T20:46:07;6.13;;;4.93;;
7699;SDS011;3892;47.794;19.126;2023-04-20T20:48:36;6.73;;;5.30;;
7699;SDS011;3892;47.794;19.126;2023-04-20T20:51:05;6.37;;;4.83;;
7699;SDS011;3892;47.794;19.126;2023-04-20T20:53:33;5.20;;;4.67;;
7699;SDS011;3892;47.794;19.126;2023-04-20T20:56:01;5.13;;;4.53;;
7699;SDS011;3892;47.794;19.126;2023-04-20T20:58:29;5.03;;;4.53;;
7699;SDS011;3892;47.794;19.126;2023-04-20T21:00:57;5.30;;;4.80;;
7699;SDS011;3892;47.794;19.126;2023-04-20T21:03:26;8.87;;;7.97;;
7699;SDS011;3892;47.794;19.126;2023-04-20T21:05:54;8.10;;;5.90;;
7699;SDS011;3892;47.794;19.126;2023-04-20T21:08:23;6.93;;;4.90;;
7699;SDS011;3892;47.794;19.126;2023-04-20T21:10:51;5.30;;;4.40;;
7699;SDS011;3892;47.794;19.126;2023-04-20T21:13:19;10.43;;;5.13;;
7699;SDS011;3892;47.794;19.126;2023-04-20T21:15:48;8.10;;;4.67;;
7699;SDS011;3892;47.794;19.126;2023-04-20T21:18:16;6.10;;;4.80;;
7699;SDS011;3892;47.794;19.126;2023-04-20T21:20:44;7.97;;;5.03;;
7699;SDS011;3892;47.794;19.126;2023-04-20T21:23:12;5.20;;;4.67;;
7699;SDS011;3892;47.794;19.126;2023-04-20T21:25:41;9.70;;;5.47;;
7699;SDS011;3892;47.794;19.126;2023-04-20T21:28:09;6.43;;;5.73;;
7699;SDS011;3892;47.794;19.126;2023-04-20T21:30:37;6.57;;;5.87;;
7699;SDS011;3892;47.794;19.126;2023-04-20T21:33:06;6.43;;;5.17;;
7699;SDS011;3892;47.794;19.126;2023-04-20T21:35:34;5.80;;;4.83;;
7699;SDS011;3892;47.794;19.126;2023-04-20T21:38:02;5.23;;;4.70;;
7699;SDS011;3892;47.794;19.126;2023-04-20T21:40:30;6.40;;;4.60;;
7699;SDS011;3892;47.794;19.126;2023-04-20T21:43:00;6.10;;;4.63;;
7699;SDS011;3892;47.794;19.126;2023-04-20T21:45:28;6.53;;;4.73;;
7699;SDS011;3892;47.794;19.126;2023-04-20T21:47:56;5.43;;;4.10;;
7699;SDS011;3892;47.794;19.126;2023-04-20T21:50:24;4.97;;;4.20;;
7699;SDS011;3892;47.794;19.126;2023-04-20T21:52:53;4.53;;;3.93;;
7699;SDS011;3892;47.794;19.126;2023-04-20T21:55:21;7.67;;;4.77;;
7699;SDS011;3892;47.794;19.126;2023-04-20T21:57:49;5.57;;;4.27;;
7699;SDS011;3892;47.794;19.126;2023-04-20T22:00:19;4.73;;;4.33;;
7699;SDS011;3892;47.794;19.126;2023-04-20T22:02:47;4.93;;;4.43;;
7699;SDS011;3892;47.794;19.126;2023-04-20T22:05:16;4.93;;;4.40;;
7699;SDS011;3892;47.794;19.126;2023-04-20T22:07:44;6.20;;;5.60;;
7699;SDS011;3892;47.794;19.126;2023-04-20T22:10:12;7.70;;;5.87;;
7699;SDS011;3892;47.794;19.126;2023-04-20T22:12:40;8.07;;;5.90;;
7699;SDS011;3892;47.794;19.126;2023-04-20T22:15:09;6.27;;;5.67;;
7699;SDS011;3892;47.794;19.126;2023-04-20T22:17:40;6.77;;;5.83;;
7699;SDS011;3892;47.794;19.126;2023-04-20T22:20:11;6.50;;;5.30;;
7699;SDS011;3892;47.794;19.126;2023-04-20T22:22:39;5.43;;;4.93;;
7699;SDS011;3892;47.794;19.126;2023-04-20T22:25:08;5.73;;;5.23;;
7699;SDS011;3892;47.794;19.126;2023-04-20T22:27:36;6.43;;;5.47;;
7699;SDS011;3892;47.794;19.126;2023-04-20T22:30:05;7.87;;;5.43;;
7699;SDS011;3892;47.794;19.126;2023-04-20T22:32:34;5.90;;;4.63;;
7699;SDS011;3892;47.794;19.126;2023-04-20T22:35:04;5.57;;;5.07;;
7699;SDS011;3892;47.794;19.126;2023-04-20T22:37:33;9.60;;;5.37;;
7699;SDS011;3892;47.794;19.126;2023-04-20T22:40:01;7.93;;;5.17;;
7699;SDS011;3892;47.794;19.126;2023-04-20T22:42:31;6.73;;;5.50;;
7699;SDS011;3892;47.794;19.126;2023-04-20T22:45:00;9.53;;;5.33;;
7699;SDS011;3892;47.794;19.126;2023-04-20T22:47:28;5.33;;;4.83;;
7699;SDS011;3892;47.794;19.126;2023-04-20T22:49:56;6.60;;;4.87;;